createdAt,value
2018-09-11T00:01:48.050Z,12.20
2018-09-11T00:04:16.751Z,11.23
2018-09-11T00:06:45.409Z,11.70
2018-09-11T00:09:14.230Z,12.17
2018-09-11T00:11:43.841Z,10.80
2018-09-11T00:14:12.594Z,10.67
2018-09-11T00:16:41.258Z,11.43
2018-09-11T00:19:09.917Z,11.77
2018-09-11T00:21:38.615Z,11.77
2018-09-11T00:24:07.310Z,11.70
2018-09-11T00:26:35.979Z,11.80
2018-09-11T00:29:04.625Z,11.63
2018-09-11T00:31:33.310Z,12.70
2018-09-11T00:34:02.002Z,12.40
2018-09-11T00:36:30.657Z,12.00
2018-09-11T00:38:59.319Z,12.73
2018-09-11T00:41:27.982Z,13.50
2018-09-11T00:43:56.639Z,12.77
2018-09-11T00:46:25.290Z,11.80
2018-09-11T00:48:53.965Z,12.27
2018-09-11T00:51:22.638Z,11.37
2018-09-11T00:53:51.299Z,13.37
2018-09-11T00:56:19.963Z,10.97
2018-09-11T00:58:48.662Z,12.40
2018-09-11T01:01:17.335Z,12.50
2018-09-11T01:03:46.007Z,13.33
2018-09-11T01:06:14.934Z,12.97
2018-09-11T01:08:43.585Z,11.77
2018-09-11T01:11:12.261Z,12.50
2018-09-11T01:13:40.915Z,12.23
2018-09-11T01:16:10.148Z,12.93
2018-09-11T01:18:38.821Z,12.80
2018-09-11T01:21:07.499Z,11.80
2018-09-11T01:23:36.298Z,10.90
2018-09-11T01:26:04.949Z,10.80
2018-09-11T01:28:33.630Z,10.20
2018-09-11T01:31:02.293Z,10.27
2018-09-11T01:33:30.949Z,10.00
2018-09-11T01:35:59.630Z,10.27
2018-09-11T01:38:28.310Z,8.63
2018-09-11T01:40:56.969Z,8.90
2018-09-11T01:43:25.617Z,8.97
2018-09-11T01:45:54.278Z,7.63
2018-09-11T01:48:22.945Z,7.80
2018-09-11T01:50:51.602Z,7.10
2018-09-11T01:53:20.258Z,7.37
2018-09-11T01:55:48.917Z,7.90
2018-09-11T01:58:17.592Z,6.80
2018-09-11T02:00:46.264Z,6.10
2018-09-11T02:03:14.928Z,6.80
2018-09-11T02:05:43.580Z,5.57
2018-09-11T02:08:12.228Z,5.10
2018-09-11T02:10:40.892Z,5.67
2018-09-11T02:13:09.542Z,6.30
2018-09-11T02:15:38.205Z,5.67
2018-09-11T02:18:06.853Z,5.20
2018-09-11T02:20:35.509Z,5.13
2018-09-11T02:23:04.174Z,4.80
2018-09-11T02:25:32.814Z,5.10
2018-09-11T02:28:01.478Z,4.50
2018-09-11T02:30:30.138Z,4.20
2018-09-11T02:32:58.774Z,3.93
2018-09-11T02:35:27.442Z,4.33
2018-09-11T02:37:56.091Z,4.33
2018-09-11T02:40:24.754Z,4.50
2018-09-11T02:42:53.399Z,4.20
2018-09-11T02:45:23.533Z,4.40
2018-09-11T02:47:53.248Z,4.13
2018-09-11T02:50:21.899Z,4.30
2018-09-11T02:52:50.745Z,4.53
2018-09-11T02:55:19.414Z,3.30
2018-09-11T02:57:48.076Z,3.80
2018-09-11T03:00:16.742Z,3.80
2018-09-11T03:02:45.405Z,4.33
2018-09-11T03:05:14.061Z,3.70
2018-09-11T03:07:42.719Z,3.77
2018-09-11T03:10:11.375Z,3.60
2018-09-11T03:12:40.037Z,4.07
2018-09-11T03:15:08.698Z,3.40
2018-09-11T03:17:37.355Z,3.40
2018-09-11T03:20:06.015Z,3.30
2018-09-11T03:22:34.730Z,3.97
2018-09-11T03:25:03.403Z,3.70
2018-09-11T03:27:32.034Z,3.70
2018-09-11T03:30:00.689Z,3.20
2018-09-11T03:32:29.351Z,3.33
2018-09-11T03:34:58.002Z,3.77
2018-09-11T03:37:26.648Z,4.40
2018-09-11T03:39:55.325Z,3.20
2018-09-11T03:42:23.993Z,2.90
2018-09-11T03:44:52.670Z,3.27
2018-09-11T03:47:21.335Z,3.40
2018-09-11T03:49:50.014Z,3.23
2018-09-11T03:52:18.663Z,3.10
2018-09-11T03:54:47.302Z,3.00
2018-09-11T03:57:15.964Z,3.00
2018-09-11T03:59:44.613Z,3.60
2018-09-11T04:02:13.275Z,3.17
2018-09-11T04:04:41.925Z,3.70
2018-09-11T04:07:10.578Z,2.83
2018-09-11T04:09:39.208Z,3.17
2018-09-11T04:12:07.854Z,3.20
2018-09-11T04:14:36.557Z,3.60
2018-09-11T04:17:05.270Z,3.27
2018-09-11T04:19:33.913Z,3.83
2018-09-11T04:22:02.561Z,3.70
2018-09-11T04:24:31.193Z,3.20
2018-09-11T04:26:59.863Z,4.37
2018-09-11T04:29:28.510Z,3.33
2018-09-11T04:31:57.166Z,3.80
2018-09-11T04:34:25.810Z,3.07
2018-09-11T04:36:54.466Z,3.70
2018-09-11T04:39:23.102Z,3.30
2018-09-11T04:41:51.785Z,3.73
2018-09-11T04:44:20.430Z,3.77
2018-09-11T04:46:49.070Z,4.03
2018-09-11T04:49:17.722Z,4.17
2018-09-11T04:51:46.382Z,3.40
2018-09-11T04:54:15.029Z,4.10
2018-09-11T04:56:43.701Z,3.60
2018-09-11T04:59:12.366Z,4.70
2018-09-11T05:01:41.346Z,3.70
2018-09-11T05:04:10.028Z,3.53
2018-09-11T05:06:38.782Z,2.83
2018-09-11T05:09:09.278Z,5.43
2018-09-11T05:11:37.926Z,3.40
2018-09-11T05:14:06.950Z,3.20
2018-09-11T05:16:35.602Z,3.10
2018-09-11T05:19:04.349Z,3.93
2018-09-11T05:21:32.914Z,3.60
2018-09-11T05:24:01.675Z,3.83
2018-09-11T05:26:30.338Z,4.00
2018-09-11T05:28:59.017Z,4.17
2018-09-11T05:31:27.661Z,4.13
2018-09-11T05:33:56.323Z,3.63
2018-09-11T05:36:24.986Z,3.70
2018-09-11T05:38:53.701Z,4.53
2018-09-11T05:41:22.299Z,5.17
2018-09-11T05:43:50.964Z,3.40
2018-09-11T05:46:19.889Z,3.50
2018-09-11T05:48:48.529Z,4.20
2018-09-11T05:51:17.199Z,3.40
2018-09-11T05:53:45.844Z,4.30
2018-09-11T05:56:14.498Z,3.93
2018-09-11T05:58:43.162Z,4.23
2018-09-11T06:01:11.839Z,4.37
2018-09-11T06:03:40.493Z,4.00
2018-09-11T06:06:09.158Z,4.10
2018-09-11T06:08:37.810Z,4.03
2018-09-11T06:11:06.482Z,4.97
2018-09-11T06:13:35.126Z,3.60
2018-09-11T06:16:03.825Z,3.03
2018-09-11T06:18:32.581Z,3.23
2018-09-11T06:21:01.262Z,3.70
2018-09-11T06:23:29.961Z,3.40
2018-09-11T06:25:58.615Z,4.07
2018-09-11T06:28:27.265Z,3.03
2018-09-11T06:30:55.918Z,4.53
2018-09-11T06:33:24.550Z,4.23
2018-09-11T06:35:53.218Z,3.43
2018-09-11T06:38:21.867Z,4.07
2018-09-11T06:40:50.535Z,4.40
2018-09-11T06:43:19.193Z,3.80
2018-09-11T06:45:48.706Z,3.87
2018-09-11T06:48:17.354Z,2.80
2018-09-11T06:50:46.037Z,4.23
2018-09-11T06:53:14.693Z,2.67
2018-09-11T06:55:43.350Z,2.53
2018-09-11T06:58:12.023Z,3.60
2018-09-11T07:00:40.702Z,3.17
2018-09-11T07:03:09.337Z,2.80
2018-09-11T07:05:38.006Z,2.67
2018-09-11T07:08:06.668Z,2.47
2018-09-11T07:10:35.321Z,2.40
2018-09-11T07:13:03.980Z,2.33
2018-09-11T07:15:33.465Z,2.33
2018-09-11T07:18:02.126Z,2.73
2018-09-11T07:20:31.015Z,2.87
2018-09-11T07:22:59.433Z,3.00
2018-09-11T07:25:28.084Z,3.17
2018-09-11T07:27:56.746Z,2.77
2018-09-11T07:30:25.470Z,4.13
2018-09-11T07:32:54.094Z,3.33
2018-09-11T07:35:22.747Z,3.40
2018-09-11T07:37:51.425Z,3.23
2018-09-11T07:40:20.054Z,3.43
2018-09-11T07:42:48.707Z,2.77
2018-09-11T07:45:17.369Z,3.00
2018-09-11T07:47:46.024Z,1.97
2018-09-11T07:50:14.706Z,1.80
2018-09-11T07:52:43.465Z,2.10
2018-09-11T07:55:12.058Z,2.37
2018-09-11T07:57:40.813Z,2.23
2018-09-11T08:00:09.396Z,3.07
2018-09-11T08:02:38.041Z,2.47
2018-09-11T08:05:06.802Z,2.50
2018-09-11T08:07:35.421Z,2.40
2018-09-11T08:10:04.098Z,3.73
2018-09-11T08:12:32.755Z,2.80
2018-09-11T08:15:01.413Z,2.73
2018-09-11T08:17:30.097Z,2.10
2018-09-11T08:19:58.834Z,2.17
2018-09-11T08:22:27.430Z,2.00
2018-09-11T08:24:56.122Z,2.30
2018-09-11T08:27:24.770Z,2.37
2018-09-11T08:29:53.434Z,2.03
2018-09-11T08:32:22.134Z,1.70
2018-09-11T08:34:50.789Z,2.50
2018-09-11T08:37:19.440Z,2.30
2018-09-11T08:39:48.093Z,2.60
2018-09-11T08:42:16.785Z,1.93
2018-09-11T08:44:45.458Z,2.03
2018-09-11T08:47:14.111Z,2.63
2018-09-11T08:49:42.766Z,2.70
2018-09-11T08:52:11.469Z,2.03
2018-09-11T08:54:40.096Z,3.17
2018-09-11T08:57:09.027Z,2.23
2018-09-11T08:59:37.694Z,2.10
2018-09-11T09:02:06.398Z,2.40
2018-09-11T09:04:35.058Z,2.77
2018-09-11T09:07:03.706Z,2.50
2018-09-11T09:09:32.391Z,2.63
2018-09-11T09:12:01.067Z,2.80
2018-09-11T09:14:29.707Z,2.00
2018-09-11T09:16:58.362Z,2.17
2018-09-11T09:19:27.038Z,2.40
2018-09-11T09:21:55.724Z,2.27
2018-09-11T09:24:24.379Z,2.20
2018-09-11T09:26:53.021Z,2.50
2018-09-11T09:29:21.679Z,2.70
2018-09-11T09:31:50.343Z,2.00
2018-09-11T09:34:18.996Z,3.77
2018-09-11T09:36:47.712Z,2.73
2018-09-11T09:39:16.322Z,2.70
2018-09-11T09:41:45.018Z,2.53
2018-09-11T09:44:13.711Z,2.13
2018-09-11T09:46:42.370Z,3.30
2018-09-11T09:49:11.039Z,2.77
2018-09-11T09:51:39.692Z,2.60
2018-09-11T09:54:08.346Z,2.10
2018-09-11T09:56:37.002Z,1.70
2018-09-11T09:59:05.664Z,2.10
2018-09-11T10:01:39.790Z,2.50
2018-09-11T10:04:08.534Z,2.40
2018-09-11T10:06:37.174Z,1.90
2018-09-11T10:09:07.900Z,1.90
2018-09-11T10:11:36.579Z,1.90
2018-09-11T10:14:05.221Z,2.37
2018-09-11T10:16:33.866Z,2.47
2018-09-11T10:19:02.522Z,2.70
2018-09-11T10:21:31.174Z,2.83
2018-09-11T10:23:59.836Z,2.10
2018-09-11T10:26:28.486Z,2.47
2018-09-11T10:28:57.150Z,2.57
2018-09-11T10:31:25.789Z,2.80
2018-09-11T10:33:54.555Z,3.43
2018-09-11T10:36:23.091Z,2.83
2018-09-11T10:38:51.752Z,3.00
2018-09-11T10:41:20.402Z,3.20
2018-09-11T10:43:49.058Z,2.17
2018-09-11T10:46:17.721Z,2.57
2018-09-11T10:48:46.452Z,2.10
2018-09-11T10:51:15.041Z,2.43
2018-09-11T10:53:43.710Z,2.10
2018-09-11T10:56:12.992Z,2.13
2018-09-11T10:58:41.657Z,3.17
2018-09-11T11:01:10.318Z,2.33
2018-09-11T11:03:38.983Z,3.00
2018-09-11T11:06:08.296Z,2.70
2018-09-11T11:08:36.947Z,2.60
2018-09-11T11:11:05.657Z,2.57
2018-09-11T11:13:34.305Z,2.30
2018-09-11T11:16:02.954Z,2.37
2018-09-11T11:18:31.637Z,2.40
2018-09-11T11:21:00.302Z,3.00
2018-09-11T11:23:28.945Z,2.30
2018-09-11T11:25:57.830Z,3.20
2018-09-11T11:28:26.473Z,4.60
2018-09-11T11:30:55.130Z,2.87
2018-09-11T11:33:23.783Z,2.67
2018-09-11T11:35:52.462Z,2.40
2018-09-11T11:38:21.086Z,2.00
2018-09-11T11:40:49.754Z,2.25
2018-09-11T11:43:18.480Z,2.25
2018-09-11T11:45:47.150Z,2.30
2018-09-11T11:48:15.816Z,2.30
2018-09-11T11:50:44.461Z,2.92
2018-09-11T11:53:13.110Z,2.35
2018-09-11T11:55:41.770Z,2.45
2018-09-11T11:58:10.450Z,2.25
2018-09-11T12:00:39.114Z,2.30
2018-09-11T12:03:08.151Z,3.00
2018-09-11T12:05:36.843Z,2.70
2018-09-11T12:08:05.489Z,4.40
2018-09-11T12:10:34.145Z,2.90
2018-09-11T12:13:02.806Z,3.00
2018-09-11T12:15:31.457Z,2.98
2018-09-11T12:18:00.122Z,2.40
2018-09-11T12:20:28.779Z,2.70
2018-09-11T12:22:57.426Z,2.87
2018-09-11T12:25:26.115Z,3.42
2018-09-11T12:27:54.762Z,3.08
2018-09-11T12:30:23.414Z,2.65
2018-09-11T12:32:52.106Z,3.25
2018-09-11T12:35:20.762Z,2.30
2018-09-11T12:37:49.429Z,2.42
2018-09-11T12:40:18.084Z,2.52
2018-09-11T12:42:46.741Z,2.75
2018-09-11T12:45:15.402Z,3.00
2018-09-11T12:47:44.402Z,3.37
2018-09-11T12:50:12.710Z,2.50
2018-09-11T12:52:41.498Z,2.30
2018-09-11T12:55:10.138Z,2.83
2018-09-11T12:57:38.778Z,3.00
2018-09-11T13:00:08.588Z,2.75
2018-09-11T13:02:39.899Z,3.22
2018-09-11T13:05:08.553Z,3.02
2018-09-11T13:07:37.377Z,2.12
2018-09-11T13:10:06.155Z,2.83
2018-09-11T13:12:34.810Z,2.83
2018-09-11T13:15:03.520Z,3.60
2018-09-11T13:17:32.153Z,2.72
2018-09-11T13:20:00.836Z,3.52
2018-09-11T13:22:29.561Z,2.50
2018-09-11T13:24:59.142Z,3.12
2018-09-11T13:27:28.103Z,3.80
2018-09-11T13:29:56.805Z,2.65
2018-09-11T13:32:25.514Z,2.75
2018-09-11T13:34:54.178Z,3.55
2018-09-11T13:37:22.894Z,2.55
2018-09-11T13:39:51.578Z,2.92
2018-09-11T13:42:20.251Z,2.80
2018-09-11T13:44:49.195Z,3.45
2018-09-11T13:47:18.299Z,2.35
2018-09-11T13:49:47.317Z,2.65
2018-09-11T13:52:15.946Z,3.00
2018-09-11T13:54:44.602Z,2.62
2018-09-11T13:57:13.282Z,2.62
2018-09-11T13:59:42.174Z,2.92
2018-09-11T14:02:10.863Z,2.80
2018-09-11T14:04:39.873Z,2.37
2018-09-11T14:07:08.540Z,2.75
2018-09-11T14:09:37.563Z,4.08
2018-09-11T14:12:06.230Z,3.05
2018-09-11T14:14:34.904Z,3.02
2018-09-11T14:17:03.552Z,2.62
2018-09-11T14:19:32.206Z,4.78
2018-09-11T14:22:00.854Z,5.03
2018-09-11T14:24:29.511Z,4.03
2018-09-11T14:26:58.182Z,3.30
2018-09-11T14:29:26.846Z,3.80
2018-09-11T14:31:55.510Z,2.47
2018-09-11T14:34:24.222Z,2.52
2018-09-11T14:36:52.817Z,2.70
2018-09-11T14:39:21.490Z,3.00
2018-09-11T14:41:50.142Z,3.37
2018-09-11T14:44:18.803Z,2.35
2018-09-11T14:46:47.465Z,3.10
2018-09-11T14:49:16.430Z,2.92
2018-09-11T14:51:45.134Z,3.02
2018-09-11T14:54:13.785Z,2.42
2018-09-11T14:56:42.434Z,3.33
2018-09-11T14:59:11.106Z,3.17
2018-09-11T15:01:39.775Z,2.47
2018-09-11T15:04:08.515Z,3.05
2018-09-11T15:06:37.118Z,3.50
2018-09-11T15:09:08.286Z,2.22
2018-09-11T15:11:37.627Z,2.98
2018-09-11T15:14:06.290Z,3.13
2018-09-11T15:16:35.858Z,2.83
2018-09-11T15:19:04.711Z,3.20
2018-09-11T15:21:33.470Z,2.80
2018-09-11T15:24:04.010Z,3.45
2018-09-11T15:26:35.541Z,2.98
2018-09-11T15:29:04.717Z,3.12
2018-09-11T15:31:33.555Z,3.40
2018-09-11T15:34:04.470Z,3.22
2018-09-11T15:36:38.468Z,2.77
2018-09-11T15:39:08.683Z,2.60
2018-09-11T15:41:40.530Z,2.77
2018-09-11T15:44:10.984Z,3.33
2018-09-11T15:46:42.398Z,3.10
2018-09-11T15:49:12.094Z,3.08
2018-09-11T15:51:41.133Z,2.60
2018-09-11T15:54:10.699Z,2.58
2018-09-11T15:56:44.818Z,3.25
2018-09-11T15:59:18.762Z,2.40
2018-09-11T16:01:47.447Z,2.30
2018-09-11T16:04:16.127Z,3.52
2018-09-11T16:06:44.846Z,2.80
2018-09-11T16:09:15.146Z,3.83
2018-09-11T16:11:43.800Z,3.10
2018-09-11T16:14:12.482Z,3.53
2018-09-11T16:16:41.170Z,3.23
2018-09-11T16:19:09.846Z,2.97
2018-09-11T16:21:38.497Z,2.43
2018-09-11T16:24:07.146Z,2.83
2018-09-11T16:26:35.802Z,3.03
2018-09-11T16:29:04.461Z,3.07
2018-09-11T16:31:33.135Z,3.20
2018-09-11T16:34:01.785Z,2.97
2018-09-11T16:36:30.502Z,3.03
2018-09-11T16:38:59.162Z,2.73
2018-09-11T16:41:27.844Z,2.50
2018-09-11T16:43:56.532Z,3.03
2018-09-11T16:46:25.174Z,2.50
2018-09-11T16:48:53.858Z,2.97
2018-09-11T16:51:22.527Z,2.80
2018-09-11T16:53:51.175Z,3.60
2018-09-11T16:56:19.845Z,3.83
2018-09-11T16:58:48.515Z,3.80
2018-09-11T17:01:17.167Z,3.50
2018-09-11T17:03:45.829Z,3.53
2018-09-11T17:06:14.490Z,3.30
2018-09-11T17:08:43.391Z,3.13
2018-09-11T17:11:11.978Z,2.70
2018-09-11T17:13:40.677Z,2.60
2018-09-11T17:16:09.433Z,2.70
2018-09-11T17:18:38.126Z,2.47
2018-09-11T17:21:06.850Z,2.77
2018-09-11T17:23:35.566Z,2.50
2018-09-11T17:26:04.329Z,2.97
2018-09-11T17:28:33.002Z,3.10
2018-09-11T17:31:01.725Z,3.03
2018-09-11T17:33:30.382Z,3.20
2018-09-11T17:35:59.415Z,3.00
2018-09-11T17:38:28.058Z,3.20
2018-09-11T17:40:56.736Z,2.90
2018-09-11T17:43:25.386Z,2.70
2018-09-11T17:45:54.066Z,3.20
2018-09-11T17:48:23.036Z,3.23
2018-09-11T17:50:58.283Z,3.50
2018-09-11T17:53:26.935Z,2.50
2018-09-11T17:55:56.782Z,2.60
2018-09-11T17:58:25.422Z,3.10
2018-09-11T18:00:54.146Z,2.53
2018-09-11T18:03:22.795Z,3.33
2018-09-11T18:05:51.449Z,2.80
2018-09-11T18:08:20.119Z,3.30
2018-09-11T18:10:48.858Z,2.90
2018-09-11T18:13:17.512Z,2.70
2018-09-11T18:15:46.184Z,3.10
2018-09-11T18:18:14.839Z,3.37
2018-09-11T18:20:43.770Z,3.17
2018-09-11T18:23:12.418Z,2.50
2018-09-11T18:25:41.086Z,2.63
2018-09-11T18:28:09.732Z,2.77
2018-09-11T18:30:38.467Z,3.67
2018-09-11T18:33:14.053Z,2.90
2018-09-11T18:35:42.794Z,2.30
2018-09-11T18:38:12.125Z,2.67
2018-09-11T18:40:40.770Z,3.07
2018-09-11T18:43:09.422Z,3.40
2018-09-11T18:45:39.015Z,2.90
2018-09-11T18:48:08.133Z,3.47
2018-09-11T18:50:47.004Z,3.20
2018-09-11T18:53:16.105Z,2.80
2018-09-11T18:55:44.903Z,3.07
2018-09-11T18:58:13.574Z,3.03
2018-09-11T19:00:42.361Z,4.10
2018-09-11T19:03:11.213Z,3.53
2018-09-11T19:05:39.947Z,3.37
2018-09-11T19:08:09.231Z,3.10
2018-09-11T19:10:37.926Z,2.87
2018-09-11T19:13:06.627Z,3.00
2018-09-11T19:15:35.802Z,3.70
2018-09-11T19:18:04.456Z,5.80
2018-09-11T19:20:33.111Z,3.60
2018-09-11T19:23:01.762Z,3.80
2018-09-11T19:25:30.462Z,3.20
2018-09-11T19:27:59.126Z,3.43
2018-09-11T19:35:19.199Z,3.23
2018-09-11T19:37:48.796Z,3.87
2018-09-11T19:40:17.483Z,3.60
2018-09-11T19:42:46.145Z,3.50
2018-09-11T19:45:14.862Z,3.97
2018-09-11T19:47:43.530Z,4.00
2018-09-11T19:50:12.251Z,3.67
2018-09-11T19:52:40.921Z,4.00
2018-09-11T19:55:09.599Z,3.40
2018-09-11T19:57:38.305Z,3.60
2018-09-11T20:00:07.477Z,3.37
2018-09-11T20:02:36.425Z,4.20
2018-09-11T20:05:05.135Z,3.83
2018-09-11T20:07:33.802Z,4.10
2018-09-11T20:10:02.644Z,3.60
2018-09-11T20:12:31.318Z,3.40
2018-09-11T20:15:00.006Z,5.00
2018-09-11T20:17:28.665Z,4.40
2018-09-11T20:19:57.436Z,3.60
2018-09-11T20:22:26.119Z,4.07
2018-09-11T20:24:55.813Z,3.37
2018-09-11T20:27:24.456Z,3.70
2018-09-11T20:29:53.132Z,3.60
2018-09-11T20:32:21.848Z,3.50
2018-09-11T20:34:50.509Z,3.60
2018-09-11T20:37:19.185Z,4.13
2018-09-11T20:39:47.857Z,3.70
2018-09-11T20:42:16.525Z,3.50
2018-09-11T20:44:45.216Z,3.80
2018-09-11T20:47:13.947Z,3.20
2018-09-11T20:49:42.651Z,3.37
2018-09-11T20:52:11.317Z,3.97
2018-09-11T20:54:40.033Z,3.60
2018-09-11T20:57:08.715Z,3.77
2018-09-11T20:59:37.370Z,4.10
2018-09-11T21:02:06.029Z,3.37
2018-09-11T21:04:34.694Z,3.63
2018-09-11T21:07:03.382Z,3.40
2018-09-11T21:09:32.030Z,3.47
2018-09-11T21:12:00.701Z,3.80
2018-09-11T21:14:30.718Z,4.00
2018-09-11T21:16:59.448Z,3.30
2018-09-11T21:19:28.126Z,3.70
2018-09-11T21:21:56.782Z,3.57
2018-09-11T21:24:25.443Z,4.10
2018-09-11T21:26:54.094Z,3.87
2018-09-11T21:29:22.742Z,3.60
2018-09-11T21:31:51.401Z,3.20
2018-09-11T21:34:20.049Z,3.57
2018-09-11T21:36:48.705Z,3.67
2018-09-11T21:39:17.354Z,3.90
2018-09-11T21:41:46.014Z,4.10
2018-09-11T21:44:14.646Z,3.70
2018-09-11T21:46:43.356Z,3.70
2018-09-11T21:49:12.001Z,3.43
2018-09-11T21:51:40.655Z,3.83
2018-09-11T21:54:09.302Z,3.37
2018-09-11T21:56:37.949Z,3.60
2018-09-11T21:59:06.605Z,4.20
2018-09-11T22:01:40.805Z,4.23
2018-09-11T22:04:09.468Z,4.87
2018-09-11T22:06:38.165Z,4.77
2018-09-11T22:09:08.575Z,4.20
2018-09-11T22:11:37.363Z,3.87
2018-09-11T22:14:06.065Z,4.20
2018-09-11T22:16:34.700Z,3.57
2018-09-11T22:19:03.372Z,3.53
2018-09-11T22:21:32.083Z,3.73
2018-09-11T22:24:00.765Z,3.80
2018-09-11T22:26:29.406Z,3.77
2018-09-11T22:28:58.085Z,4.30
2018-09-11T22:31:26.745Z,3.70
2018-09-11T22:33:55.394Z,3.50
2018-09-11T22:36:24.365Z,3.80
2018-09-11T22:38:53.013Z,4.33
2018-09-11T22:41:21.653Z,4.50
2018-09-11T22:43:50.686Z,5.10
2018-09-11T22:46:19.337Z,5.10
2018-09-11T22:48:48.010Z,5.57
2018-09-11T22:51:16.650Z,5.60
2018-09-11T22:53:45.301Z,4.97
2018-09-11T22:56:13.945Z,5.60
2018-09-11T22:58:42.612Z,4.80
2018-09-11T23:01:11.386Z,4.70
2018-09-11T23:03:40.058Z,4.80
2018-09-11T23:06:08.765Z,4.20
2018-09-11T23:08:37.491Z,4.20
2018-09-11T23:11:06.170Z,4.40
2018-09-11T23:13:34.817Z,4.53
2018-09-11T23:16:03.493Z,3.80
2018-09-11T23:18:32.153Z,3.97
2018-09-11T23:21:00.813Z,3.73
2018-09-11T23:23:29.463Z,4.60
2018-09-11T23:25:58.133Z,3.90
2018-09-11T23:28:26.786Z,4.20
2018-09-11T23:30:55.474Z,3.90
2018-09-11T23:33:24.132Z,3.63
2018-09-11T23:35:52.786Z,3.93
2018-09-11T23:38:21.457Z,4.10
2018-09-11T23:40:50.107Z,4.17
2018-09-11T23:43:20.606Z,3.90
2018-09-11T23:45:49.247Z,3.53
2018-09-11T23:48:17.894Z,3.87
2018-09-11T23:50:46.554Z,3.87
2018-09-11T23:53:20.353Z,4.20
2018-09-11T23:55:49.222Z,4.10
2018-09-11T23:58:19.753Z,4.23
